Time,TemperatureF,DewpointF,PressureIn,WindDirection,WindDirectionDegrees,WindSpeedMPH,WindSpeedGustMPH,Humidity,HourlyPrecipIn,Conditions,Clouds,dailyrainin,SoftwareType,DateUTC
2013-01-08 00:00:00,27.4,24.0,30.42,SSE,151,0.0,3.0,87,0.00,,---,0.00,VWS V14.01,2013-01-08 05:00:00,
2013-01-08 00:01:00,27.4,24.0,30.42,SSE,151,2.0,2.0,87,0.00,,---,0.00,VWS V14.01,2013-01-08 05:01:00,
2013-01-08 00:02:00,27.3,23.7,30.42,SSE,151,0.0,2.0,86,0.00,,---,0.00,VWS V14.01,2013-01-08 05:02:00,
2013-01-08 00:07:00,27.1,23.5,30.42,SSE,151,0.0,2.0,86,0.00,,---,0.00,VWS V14.01,2013-01-08 05:07:00,
2013-01-08 00:12:00,26.9,23.6,30.42,SSE,150,0.0,2.0,87,0.00,,---,0.00,VWS V14.01,2013-01-08 05:12:00,
2013-01-08 00:17:00,26.7,23.4,30.41,SSE,151,1.0,2.0,87,0.00,,---,0.00,VWS V14.01,2013-01-08 05:17:00,
2013-01-08 00:22:00,26.5,23.2,30.42,SSE,150,0.0,3.0,87,0.00,,---,0.00,VWS V14.01,2013-01-08 05:22:00,
2013-01-08 00:27:00,26.6,23.3,30.42,SSE,151,1.0,3.0,87,0.00,,---,0.00,VWS V14.01,2013-01-08 05:27:00,
2013-01-08 00:32:00,27.1,24.0,30.42,SSE,150,0.0,1.0,88,0.00,,---,0.00,VWS V14.01,2013-01-08 05:32:00,
2013-01-08 00:37:00,27.4,24.3,30.42,SSE,151,0.0,1.0,88,0.00,,---,0.00,VWS V14.01,2013-01-08 05:37:00,
2013-01-08 00:42:00,27.5,24.4,30.41,SSE,151,1.0,1.0,88,0.00,,---,0.00,VWS V14.01,2013-01-08 05:42:00,
2013-01-08 00:47:00,27.6,24.5,30.41,SSE,151,0.0,1.0,88,0.00,,---,0.00,VWS V14.01,2013-01-08 05:47:00,
2013-01-08 00:52:00,27.5,24.4,30.41,SSE,150,0.0,1.0,88,0.00,,---,0.00,VWS V14.01,2013-01-08 05:52:00,
2013-01-08 00:57:00,27.5,24.4,30.41,SSE,151,0.0,1.0,88,0.00,,---,0.00,VWS V14.01,2013-01-08 05:57:00,
2013-01-08 01:02:00,27.5,24.4,30.40,SSE,151,0.0,0.0,88,0.00,,---,0.00,VWS V14.01,2013-01-08 06:02:00,
2013-01-08 01:07:00,27.7,24.6,30.40,SSE,150,0.0,1.0,88,0.00,,---,0.00,VWS V14.01,2013-01-08 06:07:00,
2013-01-08 01:12:00,27.8,24.7,30.41,SSE,151,0.0,1.0,88,0.00,,---,0.00,VWS V14.01,2013-01-08 06:12:00,
2013-01-08 01:17:00,27.9,24.8,30.40,SSE,150,0.0,1.0,88,0.00,,---,0.00,VWS V14.01,2013-01-08 06:17:00,
2013-01-08 01:22:00,28.1,25.0,30.40,SSE,151,1.0,2.0,88,0.00,,---,0.00,VWS V14.01,2013-01-08 06:22:00,
2013-01-08 01:27:00,28.1,24.7,30.41,SSE,150,1.0,2.0,87,0.00,,---,0.00,VWS V14.01,2013-01-08 06:27:00,
2013-01-08 01:32:00,27.9,24.5,30.41,SSE,151,0.0,0.0,87,0.00,,---,0.00,VWS V14.01,2013-01-08 06:32:00,
2013-01-08 01:37:00,27.7,24.3,30.41,SSE,151,0.0,1.0,87,0.00,,---,0.00,VWS V14.01,2013-01-08 06:37:00,
2013-01-08 01:42:00,27.7,24.3,30.40,SSE,150,0.0,2.0,87,0.00,,---,0.00,VWS V14.01,2013-01-08 06:42:00,
2013-01-08 01:47:00,27.9,24.5,30.41,SSE,151,2.0,2.0,87,0.00,,---,0.00,VWS V14.01,2013-01-08 06:47:00,
2013-01-08 01:52:00,28.4,25.0,30.40,SSE,150,0.0,2.0,87,0.00,,---,0.00,VWS V14.01,2013-01-08 06:52:00,
2013-01-08 01:57:00,28.5,25.1,30.40,SSE,151,0.0,2.0,87,0.00,,---,0.00,VWS V14.01,2013-01-08 06:57:00,
2013-01-08 02:02:00,28.3,24.7,30.40,SSE,150,0.0,0.0,86,0.00,,---,0.00,VWS V14.01,2013-01-08 07:02:00,
2013-01-08 02:07:00,28.1,24.5,30.40,SSE,151,0.0,2.0,86,0.00,,---,0.00,VWS V14.01,2013-01-08 07:07:00,
2013-01-08 02:12:00,27.8,24.2,30.40,SSE,150,0.0,2.0,86,0.00,,---,0.00,VWS V14.01,2013-01-08 07:12:00,
2013-01-08 02:17:00,27.7,24.1,30.40,SSE,151,0.0,2.0,86,0.00,,---,0.00,VWS V14.01,2013-01-08 07:17:00,
2013-01-08 02:22:00,27.6,24.0,30.40,SSE,151,0.0,2.0,86,0.00,,---,0.00,VWS V14.01,2013-01-08 07:22:00,
2013-01-08 02:27:00,27.7,24.1,30.40,SSE,151,0.0,2.0,86,0.00,,---,0.00,VWS V14.01,2013-01-08 07:27:00,
2013-01-08 02:32:00,27.5,23.9,30.40,SSE,151,0.0,0.0,86,0.00,,---,0.00,VWS V14.01,2013-01-08 07:32:00,
2013-01-08 02:37:00,27.3,23.7,30.40,SSE,151,0.0,0.0,86,0.00,,---,0.00,VWS V14.01,2013-01-08 07:37:00,
2013-01-08 02:42:00,27.2,23.6,30.39,SSE,151,0.0,1.0,86,0.00,,---,0.00,VWS V14.01,2013-01-08 07:42:00,
2013-01-08 02:47:00,27.0,23.4,30.40,SSE,151,0.0,1.0,86,0.00,,---,0.00,VWS V14.01,2013-01-08 07:47:00,
2013-01-08 02:52:00,26.7,23.1,30.40,SSE,150,0.0,1.0,86,0.00,,---,0.00,VWS V14.01,2013-01-08 07:52:00,
2013-01-08 02:57:00,26.2,22.6,30.40,SSE,151,0.0,1.0,86,0.00,,---,0.00,VWS V14.01,2013-01-08 07:57:00,
2013-01-08 03:02:00,25.8,22.2,30.40,SSE,151,0.0,0.0,86,0.00,,---,0.00,VWS V14.01,2013-01-08 08:02:00,
2013-01-08 03:07:00,25.4,22.1,30.40,SSE,151,0.0,1.0,87,0.00,,---,0.00,VWS V14.01,2013-01-08 08:07:00,
2013-01-08 03:12:00,25.1,21.8,30.40,SSE,151,0.0,1.0,87,0.00,,---,0.00,VWS V14.01,2013-01-08 08:12:00,
2013-01-08 03:17:00,24.9,21.6,30.40,SSE,151,1.0,2.0,87,0.00,,---,0.00,VWS V14.01,2013-01-08 08:17:00,
2013-01-08 03:22:00,24.7,21.4,30.40,SSE,150,1.0,2.0,87,0.00,,---,0.00,VWS V14.01,2013-01-08 08:22:00,
2013-01-08 03:27:00,24.7,21.4,30.40,SSE,151,0.0,2.0,87,0.00,,---,0.00,VWS V14.01,2013-01-08 08:27:00,
2013-01-08 03:32:00,24.9,21.9,30.40,SSE,151,0.0,1.0,88,0.00,,---,0.00,VWS V14.01,2013-01-08 08:32:00,
2013-01-08 03:37:00,25.2,22.1,30.39,SSE,151,2.0,2.0,88,0.00,,---,0.00,VWS V14.01,2013-01-08 08:37:00,
2013-01-08 03:42:00,25.7,22.9,30.39,SSE,151,0.0,3.0,89,0.00,,---,0.00,VWS V14.01,2013-01-08 08:42:00,
2013-01-08 03:47:00,26.0,23.2,30.39,SSE,150,0.0,3.0,89,0.00,,---,0.00,VWS V14.01,2013-01-08 08:47:00,
2013-01-08 03:52:00,26.2,23.4,30.39,SSE,151,1.0,3.0,89,0.00,,---,0.00,VWS V14.01,2013-01-08 08:52:00,
2013-01-08 03:57:00,26.5,23.7,30.39,SSE,150,0.0,3.0,89,0.00,,---,0.00,VWS V14.01,2013-01-08 08:57:00,
2013-01-08 04:02:00,26.9,24.1,30.40,SSE,150,1.0,3.0,89,0.00,,---,0.00,VWS V14.01,2013-01-08 09:02:00,
2013-01-08 04:07:00,27.1,24.3,30.40,SSE,151,2.0,3.0,89,0.00,,---,0.00,VWS V14.01,2013-01-08 09:07:00,
2013-01-08 04:12:00,26.7,23.6,30.40,SSE,151,1.0,3.0,88,0.00,,---,0.00,VWS V14.01,2013-01-08 09:12:00,
2013-01-08 04:17:00,26.1,23.0,30.40,SSE,150,1.0,3.0,88,0.00,,---,0.00,VWS V14.01,2013-01-08 09:17:00,
2013-01-08 04:22:00,26.0,22.9,30.40,SSE,151,1.0,3.0,88,0.00,,---,0.00,VWS V14.01,2013-01-08 09:22:00,
2013-01-08 04:27:00,26.0,22.9,30.40,SSE,151,0.0,3.0,88,0.00,,---,0.00,VWS V14.01,2013-01-08 09:27:00,
2013-01-08 04:32:00,25.9,22.8,30.40,SSE,151,0.0,0.0,88,0.00,,---,0.00,VWS V14.01,2013-01-08 09:32:00,
2013-01-08 04:37:00,25.6,22.5,30.40,SSE,151,0.0,1.0,88,0.00,,---,0.00,VWS V14.01,2013-01-08 09:37:00,
2013-01-08 04:42:00,25.3,22.2,30.40,SSE,151,2.0,3.0,88,0.00,,---,0.00,VWS V14.01,2013-01-08 09:42:00,
2013-01-08 04:47:00,25.2,22.1,30.39,SSE,151,0.0,3.0,88,0.00,,---,0.00,VWS V14.01,2013-01-08 09:47:00,
2013-01-08 04:52:00,25.1,22.0,30.39,SSE,151,3.0,3.0,88,0.00,,---,0.00,VWS V14.01,2013-01-08 09:52:00,
2013-01-08 04:57:00,26.0,23.2,30.38,SSE,149,4.0,6.0,89,0.00,,---,0.00,VWS V14.01,2013-01-08 09:57:00,
2013-01-08 05:02:00,27.3,24.5,30.39,SSE,148,2.0,3.0,89,0.00,,---,0.00,VWS V14.01,2013-01-08 10:02:00,
2013-01-08 05:07:00,28.4,25.6,30.39,SSE,148,1.0,3.0,89,0.00,,---,0.00,VWS V14.01,2013-01-08 10:07:00,
2013-01-08 05:12:00,27.9,24.8,30.39,NW,311,2.0,4.0,88,0.00,,---,0.00,VWS V14.01,2013-01-08 10:12:00,
2013-01-08 05:17:00,27.3,24.2,30.39,NW,313,2.0,4.0,88,0.00,,---,0.00,VWS V14.01,2013-01-08 10:17:00,
2013-01-08 05:22:00,26.2,22.9,30.39,NW,316,4.0,6.0,87,0.00,,---,0.00,VWS V14.01,2013-01-08 10:22:00,
2013-01-08 05:27:00,25.2,21.9,30.39,NNW,331,1.0,6.0,87,0.00,,---,0.00,VWS V14.01,2013-01-08 10:27:00,
2013-01-08 05:32:00,24.8,21.5,30.39,NNW,331,2.0,2.0,87,0.00,,---,0.00,VWS V14.01,2013-01-08 10:32:00,
2013-01-08 05:37:00,24.6,21.3,30.39,SSW,203,0.0,3.0,87,0.00,,---,0.00,VWS V14.01,2013-01-08 10:37:00,
2013-01-08 05:42:00,24.6,21.3,30.39,SSW,203,0.0,3.0,87,0.00,,---,0.00,VWS V14.01,2013-01-08 10:42:00,
2013-01-08 05:47:00,24.7,21.4,30.39,SSW,203,1.0,3.0,87,0.00,,---,0.00,VWS V14.01,2013-01-08 10:47:00,
2013-01-08 05:52:00,24.6,21.6,30.40,SSW,203,2.0,3.0,88,0.00,,---,0.00,VWS V14.01,2013-01-08 10:52:00,
2013-01-08 05:57:00,24.5,21.5,30.40,SSW,203,0.0,3.0,88,0.00,,---,0.00,VWS V14.01,2013-01-08 10:57:00,
2013-01-08 06:02:00,24.5,21.5,30.40,SSW,203,0.0,1.0,88,0.00,,---,0.00,VWS V14.01,2013-01-08 11:02:00,
2013-01-08 06:07:00,24.6,21.6,30.41,SSW,203,0.0,1.0,88,0.00,,---,0.00,VWS V14.01,2013-01-08 11:07:00,
2013-01-08 06:12:00,24.7,21.9,30.41,SSW,203,0.0,2.0,89,0.00,,---,0.00,VWS V14.01,2013-01-08 11:12:00,
2013-01-08 06:17:00,24.9,22.1,30.41,SSW,203,0.0,2.0,89,0.00,,---,0.00,VWS V14.01,2013-01-08 11:17:00,
2013-01-08 06:21:00,24.9,22.1,30.42,SSW,203,0.0,2.0,89,0.00,,---,0.00,VWS V14.01,2013-01-08 11:21:00,
2013-01-08 06:26:00,24.8,22.0,30.42,SSW,203,1.0,2.0,89,0.00,,---,0.00,VWS V14.01,2013-01-08 11:26:00,
2013-01-08 06:31:00,24.5,21.7,30.42,SSW,203,0.0,2.0,89,0.00,,---,0.00,VWS V14.01,2013-01-08 11:31:00,
2013-01-08 06:36:00,24.3,21.5,30.42,SSW,202,2.0,3.0,89,0.00,,---,0.00,VWS V14.01,2013-01-08 11:36:00,
2013-01-08 06:41:00,24.3,21.5,30.43,SSW,202,1.0,3.0,89,0.00,,---,0.00,VWS V14.01,2013-01-08 11:41:00,
2013-01-08 06:46:00,24.4,21.6,30.43,SSW,202,0.0,3.0,89,0.00,,---,0.00,VWS V14.01,2013-01-08 11:46:00,
2013-01-08 06:51:00,24.8,22.3,30.43,SSW,202,1.0,3.0,90,0.00,,---,0.00,VWS V14.01,2013-01-08 11:51:00,
2013-01-08 06:56:00,25.4,22.9,30.43,NNE,28,0.0,3.0,90,0.00,,---,0.00,VWS V14.01,2013-01-08 11:56:00,
2013-01-08 07:01:00,25.6,23.1,30.44,NNE,28,1.0,2.0,90,0.00,,---,0.00,VWS V14.01,2013-01-08 12:01:00,
2013-01-08 07:06:00,26.1,23.6,30.43,NNE,28,0.0,2.0,90,0.00,,---,0.00,VWS V14.01,2013-01-08 12:06:00,
2013-01-08 07:11:00,26.3,23.8,30.43,NNE,28,1.0,2.0,90,0.00,,---,0.00,VWS V14.01,2013-01-08 12:11:00,
2013-01-08 07:16:00,26.6,24.1,30.43,NNE,28,0.0,2.0,90,0.00,,---,0.00,VWS V14.01,2013-01-08 12:16:00,
2013-01-08 07:21:00,26.7,24.2,30.43,NNE,28,0.0,2.0,90,0.00,,---,0.00,VWS V14.01,2013-01-08 12:21:00,
2013-01-08 07:26:00,26.7,23.9,30.43,NNE,28,0.0,2.0,89,0.00,,---,0.00,VWS V14.01,2013-01-08 12:26:00,
2013-01-08 07:31:00,26.6,23.8,30.43,NNE,28,2.0,3.0,89,0.00,,---,0.00,VWS V14.01,2013-01-08 12:31:00,
2013-01-08 07:36:00,26.4,23.6,30.43,NNE,28,0.0,3.0,89,0.00,,---,0.00,VWS V14.01,2013-01-08 12:36:00,
2013-01-08 07:41:00,26.0,23.2,30.43,NNE,28,0.0,3.0,89,0.00,,---,0.00,VWS V14.01,2013-01-08 12:41:00,
2013-01-08 07:46:00,25.9,23.1,30.44,NNE,28,1.0,3.0,89,0.00,,---,0.00,VWS V14.01,2013-01-08 12:46:00,
2013-01-08 07:51:00,26.2,23.4,30.44,NNE,28,0.0,3.0,89,0.00,,---,0.00,VWS V14.01,2013-01-08 12:51:00,
2013-01-08 07:56:00,26.2,23.4,30.44,NNE,28,2.0,3.0,89,0.00,,---,0.00,VWS V14.01,2013-01-08 12:56:00,
2013-01-08 08:01:00,26.5,23.7,30.43,NNE,28,1.0,2.0,89,0.00,,---,0.00,VWS V14.01,2013-01-08 13:01:00,
2013-01-08 08:06:00,26.6,23.8,30.44,NNE,28,1.0,2.0,89,0.00,,---,0.00,VWS V14.01,2013-01-08 13:06:00,
2013-01-08 08:11:00,27.0,24.2,30.44,NNE,28,2.0,2.0,89,0.00,,---,0.00,VWS V14.01,2013-01-08 13:11:00,
2013-01-08 08:16:00,27.7,24.9,30.44,NNE,28,0.0,2.0,89,0.00,,---,0.00,VWS V14.01,2013-01-08 13:16:00,
2013-01-08 08:21:00,28.7,26.1,30.44,NNE,28,0.0,2.0,90,0.00,,---,0.00,VWS V14.01,2013-01-08 13:21:00,
2013-01-08 08:26:00,29.8,27.2,30.44,NNE,28,0.0,2.0,90,0.00,,---,0.00,VWS V14.01,2013-01-08 13:26:00,
2013-01-08 08:31:00,30.9,28.3,30.44,NNE,28,1.0,2.0,90,0.00,,---,0.00,VWS V14.01,2013-01-08 13:31:00,
2013-01-08 08:36:00,31.8,28.9,30.44,NNE,28,0.0,2.0,89,0.00,,---,0.00,VWS V14.01,2013-01-08 13:36:00,
2013-01-08 08:41:00,32.3,29.1,30.44,NNE,28,0.0,2.0,88,0.00,,---,0.00,VWS V14.01,2013-01-08 13:41:00,
2013-01-08 08:46:00,32.6,28.9,30.45,NNE,28,0.0,2.0,86,0.00,,---,0.00,VWS V14.01,2013-01-08 13:46:00,
2013-01-08 08:51:00,33.2,31.1,30.45,NNE,28,0.0,2.0,92,0.00,,---,0.00,VWS V14.01,2013-01-08 13:51:00,
2013-01-08 08:56:00,34.0,30.3,30.45,NNE,28,0.0,2.0,86,0.00,,---,0.00,VWS V14.01,2013-01-08 13:56:00,
2013-01-08 09:01:00,34.9,30.9,30.44,NNE,28,0.0,0.0,85,0.00,,---,0.00,VWS V14.01,2013-01-08 14:01:00,
2013-01-08 09:06:00,35.8,31.5,30.44,NNE,28,0.0,1.0,84,0.00,,---,0.00,VWS V14.01,2013-01-08 14:06:00,
2013-01-08 09:11:00,36.5,31.8,30.44,NNE,28,0.0,1.0,83,0.00,,---,0.00,VWS V14.01,2013-01-08 14:11:00,
2013-01-08 09:16:00,37.2,31.9,30.44,NNE,29,1.0,3.0,81,0.00,,---,0.00,VWS V14.01,2013-01-08 14:16:00,
2013-01-08 09:21:00,37.2,31.0,30.44,NNE,29,2.0,3.0,78,0.00,,---,0.00,VWS V14.01,2013-01-08 14:21:00,
2013-01-08 09:26:00,37.1,30.9,30.44,NNE,29,1.0,3.0,78,0.00,,---,0.00,VWS V14.01,2013-01-08 14:26:00,
2013-01-08 09:31:00,37.7,31.5,30.44,NNE,29,2.0,2.0,78,0.00,,---,0.00,VWS V14.01,2013-01-08 14:31:00,
2013-01-08 09:36:00,38.1,31.2,30.44,NNE,29,2.0,3.0,76,0.00,,---,0.00,VWS V14.01,2013-01-08 14:36:00,
2013-01-08 09:41:00,38.4,31.5,30.44,NNE,29,0.0,3.0,76,0.00,,---,0.00,VWS V14.01,2013-01-08 14:41:00,
2013-01-08 09:46:00,38.8,31.9,30.45,NNE,29,0.0,3.0,76,0.00,,---,0.00,VWS V14.01,2013-01-08 14:46:00,
2013-01-08 09:51:00,39.2,32.0,30.45,NNE,29,0.0,3.0,75,0.00,,---,0.00,VWS V14.01,2013-01-08 14:51:00,
2013-01-08 09:56:00,39.3,31.7,30.45,NNE,28,1.0,3.0,74,0.00,,---,0.00,VWS V14.01,2013-01-08 14:56:00,
2013-01-08 10:01:00,39.6,32.0,30.45,NNE,28,0.0,0.0,74,0.00,,---,0.00,VWS V14.01,2013-01-08 15:01:00,
2013-01-08 10:06:00,40.3,32.7,30.45,NNE,28,0.0,2.0,74,0.00,,---,0.00,VWS V14.01,2013-01-08 15:06:00,
2013-01-08 10:11:00,40.9,32.6,30.45,SW,234,1.0,4.0,72,0.00,,---,0.00,VWS V14.01,2013-01-08 15:11:00,
2013-01-08 10:16:00,41.5,33.2,30.45,SW,229,2.0,4.0,72,0.00,,---,0.00,VWS V14.01,2013-01-08 15:16:00,
2013-01-08 10:21:00,42.4,33.3,30.44,SE,137,3.0,4.0,70,0.00,,---,0.00,VWS V14.01,2013-01-08 15:21:00,
2013-01-08 10:26:00,42.2,32.8,30.44,East,96,3.0,4.0,69,0.00,,---,0.00,VWS V14.01,2013-01-08 15:26:00,
2013-01-08 10:31:00,42.0,32.6,30.43,East,95,3.0,4.0,69,0.00,,---,0.00,VWS V14.01,2013-01-08 15:31:00,
2013-01-08 10:36:00,41.9,32.8,30.43,East,90,2.0,4.0,70,0.00,,---,0.00,VWS V14.01,2013-01-08 15:36:00,
2013-01-08 10:41:00,42.3,32.5,30.43,East,90,3.0,4.0,68,0.00,,---,0.00,VWS V14.01,2013-01-08 15:41:00,
2013-01-08 10:46:00,42.6,32.8,30.43,East,101,1.0,4.0,68,0.00,,---,0.00,VWS V14.01,2013-01-08 15:46:00,
2013-01-08 10:51:00,42.6,32.4,30.43,East,101,2.0,4.0,67,0.00,,---,0.00,VWS V14.01,2013-01-08 15:51:00,
2013-01-08 10:56:00,42.9,32.3,30.43,East,101,1.0,4.0,66,0.00,,---,0.00,VWS V14.01,2013-01-08 15:56:00,
2013-01-08 11:01:00,43.8,32.8,30.43,East,101,1.0,1.0,65,0.00,,---,0.00,VWS V14.01,2013-01-08 16:01:00,
2013-01-08 11:06:00,44.3,32.9,30.43,East,101,1.0,2.0,64,0.00,,---,0.00,VWS V14.01,2013-01-08 16:06:00,
2013-01-08 11:11:00,45.2,33.4,30.43,East,101,0.0,2.0,63,0.00,,---,0.00,VWS V14.01,2013-01-08 16:11:00,
2013-01-08 11:16:00,45.9,34.0,30.43,South,186,0.0,4.0,63,0.00,,---,0.00,VWS V14.01,2013-01-08 16:16:00,
2013-01-08 11:21:00,46.4,34.1,30.42,South,186,2.0,4.0,62,0.00,,---,0.00,VWS V14.01,2013-01-08 16:21:00,
2013-01-08 11:26:00,46.8,34.1,30.42,South,186,0.0,4.0,61,0.00,,---,0.00,VWS V14.01,2013-01-08 16:26:00,
2013-01-08 11:31:00,47.4,34.6,30.42,South,187,1.0,3.0,61,0.00,,---,0.00,VWS V14.01,2013-01-08 16:31:00,
2013-01-08 11:36:00,48.2,35.0,30.42,SW,221,0.0,4.0,60,0.00,,---,0.00,VWS V14.01,2013-01-08 16:36:00,
2013-01-08 11:41:00,48.6,34.9,30.42,SW,221,1.0,4.0,59,0.00,,---,0.00,VWS V14.01,2013-01-08 16:41:00,
2013-01-08 11:46:00,48.7,34.6,30.41,SW,221,0.0,4.0,58,0.00,,---,0.00,VWS V14.01,2013-01-08 16:46:00,
2013-01-08 11:51:00,48.3,34.2,30.41,NNW,335,0.0,6.0,58,0.00,,---,0.00,VWS V14.01,2013-01-08 16:51:00,
2013-01-08 11:56:00,48.4,34.8,30.41,South,170,1.0,6.0,59,0.00,,---,0.00,VWS V14.01,2013-01-08 16:56:00,
2013-01-08 12:01:00,49.0,34.9,30.40,South,170,0.0,1.0,58,0.00,,---,0.00,VWS V14.01,2013-01-08 17:01:00,
2013-01-08 12:06:00,49.6,33.7,30.40,West,275,1.0,5.0,54,0.00,,---,0.00,VWS V14.01,2013-01-08 17:06:00,
2013-01-08 12:11:00,50.2,33.7,30.40,SSE,150,1.0,5.0,53,0.00,,---,0.00,VWS V14.01,2013-01-08 17:11:00,
2013-01-08 12:16:00,50.6,34.1,30.39,SW,215,5.0,6.0,53,0.00,,---,0.00,VWS V14.01,2013-01-08 17:16:00,
2013-01-08 12:21:00,50.8,34.3,30.39,South,190,2.0,6.0,53,0.00,,---,0.00,VWS V14.01,2013-01-08 17:21:00,
2013-01-08 12:26:00,51.0,33.5,30.38,SW,225,1.0,6.0,51,0.00,,---,0.00,VWS V14.01,2013-01-08 17:26:00,
2013-01-08 12:31:00,51.3,33.3,30.38,South,185,3.0,3.0,50,0.00,,---,0.00,VWS V14.01,2013-01-08 17:31:00,
2013-01-08 12:36:00,51.2,33.2,30.38,South,185,3.0,3.0,50,0.00,,---,0.00,VWS V14.01,2013-01-08 17:36:00,
2013-01-08 12:41:00,51.5,33.5,30.37,South,184,0.0,3.0,50,0.00,,---,0.00,VWS V14.01,2013-01-08 17:41:00,
2013-01-08 12:45:00,51.8,32.8,30.37,SW,236,0.0,3.0,48,0.00,,---,0.00,VWS V14.01,2013-01-08 17:45:00,
2013-01-08 12:50:00,52.0,32.9,30.37,WSW,242,0.0,3.0,48,0.00,,---,0.00,VWS V14.01,2013-01-08 17:50:00,
2013-01-08 12:55:00,52.0,31.9,30.37,WSW,252,0.0,5.0,46,0.00,,---,0.00,VWS V14.01,2013-01-08 17:55:00,
2013-01-08 13:00:00,52.2,32.6,30.37,SSW,194,1.0,1.0,47,0.00,,---,0.00,VWS V14.01,2013-01-08 18:00:00,
2013-01-08 13:05:00,52.3,32.7,30.36,SW,226,2.0,4.0,47,0.00,,---,0.00,VWS V14.01,2013-01-08 18:05:00,
2013-01-08 13:10:00,52.2,33.6,30.36,ESE,121,1.0,4.0,49,0.00,,---,0.00,VWS V14.01,2013-01-08 18:10:00,
2013-01-08 13:15:00,51.1,33.6,30.36,East,88,1.0,4.0,51,0.00,,---,0.00,VWS V14.01,2013-01-08 18:15:00,
2013-01-08 13:20:00,50.9,33.4,30.37,ESE,115,0.0,4.0,51,0.00,,---,0.00,VWS V14.01,2013-01-08 18:20:00,
2013-01-08 13:25:00,51.2,33.2,30.36,ESE,115,1.0,4.0,50,0.00,,---,0.00,VWS V14.01,2013-01-08 18:25:00,
2013-01-08 13:30:00,51.5,33.5,30.36,ESE,115,1.0,2.0,50,0.00,,---,0.00,VWS V14.01,2013-01-08 18:30:00,
2013-01-08 13:35:00,52.0,33.5,30.36,ESE,115,0.0,2.0,49,0.00,,---,0.00,VWS V14.01,2013-01-08 18:35:00,
2013-01-08 13:40:00,52.6,33.5,30.36,ESE,115,0.0,2.0,48,0.00,,---,0.00,VWS V14.01,2013-01-08 18:40:00,
2013-01-08 13:45:00,53.1,34.0,30.36,NNW,327,0.0,3.0,48,0.00,,---,0.00,VWS V14.01,2013-01-08 18:45:00,
2013-01-08 13:50:00,53.3,32.5,30.36,WNW,284,2.0,4.0,45,0.00,,---,0.00,VWS V14.01,2013-01-08 18:50:00,
2013-01-08 13:55:00,53.1,32.3,30.36,WNW,292,3.0,4.0,45,0.00,,---,0.00,VWS V14.01,2013-01-08 18:55:00,
2013-01-08 14:00:00,53.3,32.5,30.35,NW,307,3.0,3.0,45,0.00,,---,0.00,VWS V14.01,2013-01-08 19:00:00,
2013-01-08 14:05:00,53.2,31.9,30.35,WNW,290,0.0,4.0,44,0.00,,---,0.00,VWS V14.01,2013-01-08 19:05:00,
2013-01-08 14:10:00,53.5,32.1,30.35,WNW,290,0.0,4.0,44,0.00,,---,0.00,VWS V14.01,2013-01-08 19:10:00,
2013-01-08 14:15:00,54.1,32.1,30.35,WNW,290,1.0,4.0,43,0.00,,---,0.00,VWS V14.01,2013-01-08 19:15:00,
2013-01-08 14:20:00,54.1,32.1,30.35,WNW,290,1.0,4.0,43,0.00,,---,0.00,VWS V14.01,2013-01-08 19:20:00,
2013-01-08 14:25:00,54.0,32.6,30.35,WNW,296,2.0,4.0,44,0.00,,---,0.00,VWS V14.01,2013-01-08 19:25:00,
2013-01-08 14:30:00,54.1,31.5,30.35,WNW,296,0.0,4.0,42,0.00,,---,0.00,VWS V14.01,2013-01-08 19:30:00,
2013-01-08 14:35:00,54.4,32.4,30.35,WNW,296,0.0,1.0,43,0.00,,---,0.00,VWS V14.01,2013-01-08 19:35:00,
2013-01-08 14:40:00,54.0,32.6,30.35,East,96,2.0,3.0,44,0.00,,---,0.00,VWS V14.01,2013-01-08 19:40:00,
2013-01-08 14:45:00,53.8,32.4,30.35,NE,46,3.0,4.0,44,0.00,,---,0.00,VWS V14.01,2013-01-08 19:45:00,
2013-01-08 14:50:00,53.8,33.0,30.35,NE,52,4.0,4.0,45,0.00,,---,0.00,VWS V14.01,2013-01-08 19:50:00,
2013-01-08 14:55:00,53.8,33.0,30.35,NNE,14,0.0,4.0,45,0.00,,---,0.00,VWS V14.01,2013-01-08 19:55:00,
2013-01-08 15:00:00,53.9,32.5,30.35,North,11,3.0,4.0,44,0.00,,---,0.00,VWS V14.01,2013-01-08 20:00:00,
2013-01-08 15:05:00,53.8,32.4,30.35,North,5,2.0,4.0,44,0.00,,---,0.00,VWS V14.01,2013-01-08 20:05:00,
2013-01-08 15:10:00,53.9,33.1,30.35,North,5,2.0,4.0,45,0.00,,---,0.00,VWS V14.01,2013-01-08 20:10:00,
2013-01-08 15:15:00,53.9,32.5,30.35,NNE,21,4.0,5.0,44,0.00,,---,0.00,VWS V14.01,2013-01-08 20:15:00,
2013-01-08 15:20:00,53.7,33.4,30.35,North,10,2.0,6.0,46,0.00,,---,0.00,VWS V14.01,2013-01-08 20:20:00,
2013-01-08 15:25:00,53.6,32.8,30.35,NNE,15,2.0,6.0,45,0.00,,---,0.00,VWS V14.01,2013-01-08 20:25:00,
2013-01-08 15:30:00,53.7,32.3,30.35,NE,34,4.0,6.0,44,0.00,,---,0.00,VWS V14.01,2013-01-08 20:30:00,
2013-01-08 15:35:00,53.8,33.0,30.35,NNE,27,3.0,3.0,45,0.00,,---,0.00,VWS V14.01,2013-01-08 20:35:00,
2013-01-08 15:40:00,54.0,32.6,30.35,NE,44,2.0,4.0,44,0.00,,---,0.00,VWS V14.01,2013-01-08 20:40:00,
2013-01-08 15:45:00,54.0,32.0,30.36,NNE,17,2.0,4.0,43,0.00,,---,0.00,VWS V14.01,2013-01-08 20:45:00,
2013-01-08 15:50:00,54.0,32.6,30.35,NNE,13,3.0,4.0,44,0.00,,---,0.00,VWS V14.01,2013-01-08 20:50:00,
2013-01-08 15:55:00,54.1,32.1,30.35,NNE,14,3.0,5.0,43,0.00,,---,0.00,VWS V14.01,2013-01-08 20:55:00,
2013-01-08 16:00:00,54.2,32.2,30.35,NNE,14,1.0,5.0,43,0.00,,---,0.00,VWS V14.01,2013-01-08 21:00:00,
2013-01-08 16:05:00,54.2,32.2,30.35,NNE,14,1.0,3.0,43,0.00,,---,0.00,VWS V14.01,2013-01-08 21:05:00,
2013-01-08 16:10:00,54.2,32.2,30.35,NNE,14,2.0,3.0,43,0.00,,---,0.00,VWS V14.01,2013-01-08 21:10:00,
2013-01-08 16:15:00,54.0,32.0,30.35,NNE,14,1.0,3.0,43,0.00,,---,0.00,VWS V14.01,2013-01-08 21:15:00,
2013-01-08 16:20:00,53.7,32.3,30.35,NNE,14,1.0,3.0,44,0.00,,---,0.00,VWS V14.01,2013-01-08 21:20:00,
2013-01-08 16:25:00,53.3,33.1,30.36,East,86,2.0,4.0,46,0.00,,---,0.00,VWS V14.01,2013-01-08 21:25:00,
2013-01-08 16:30:00,52.7,33.6,30.36,NE,55,1.0,4.0,48,0.00,,---,0.00,VWS V14.01,2013-01-08 21:30:00,
2013-01-08 16:35:00,51.9,33.9,30.36,NE,55,2.0,3.0,50,0.00,,---,0.00,VWS V14.01,2013-01-08 21:35:00,
2013-01-08 16:40:00,51.1,34.1,30.36,ENE,57,1.0,3.0,52,0.00,,---,0.00,VWS V14.01,2013-01-08 21:40:00,
2013-01-08 16:45:00,50.3,33.4,30.37,ESE,113,4.0,7.0,52,0.00,,---,0.00,VWS V14.01,2013-01-08 21:45:00,
2013-01-08 16:50:00,49.6,33.2,30.37,ESE,123,4.0,7.0,53,0.00,,---,0.00,VWS V14.01,2013-01-08 21:50:00,
2013-01-08 16:55:00,49.3,32.9,30.37,ESE,107,3.0,7.0,53,0.00,,---,0.00,VWS V14.01,2013-01-08 21:55:00,
2013-01-08 17:00:00,49.1,32.7,30.37,East,81,3.0,7.0,53,0.00,,---,0.00,VWS V14.01,2013-01-08 22:00:00,
2013-01-08 17:05:00,48.5,32.6,30.37,ESE,112,0.0,5.0,54,0.00,,---,0.00,VWS V14.01,2013-01-08 22:05:00,
2013-01-08 17:10:00,48.1,32.3,30.38,ESE,109,1.0,5.0,54,0.00,,---,0.00,VWS V14.01,2013-01-08 22:10:00,
2013-01-08 17:15:00,47.9,32.1,30.38,ESE,110,0.0,5.0,54,0.00,,---,0.00,VWS V14.01,2013-01-08 22:15:00,
2013-01-08 17:20:00,47.9,32.1,30.38,ESE,111,2.0,5.0,54,0.00,,---,0.00,VWS V14.01,2013-01-08 22:20:00,
2013-01-08 17:25:00,47.9,32.1,30.37,East,90,1.0,5.0,54,0.00,,---,0.00,VWS V14.01,2013-01-08 22:25:00,
2013-01-08 17:30:00,47.3,32.0,30.38,East,90,2.0,5.0,55,0.00,,---,0.00,VWS V14.01,2013-01-08 22:30:00,
2013-01-08 17:35:00,46.7,31.9,30.38,East,90,1.0,3.0,56,0.00,,---,0.00,VWS V14.01,2013-01-08 22:35:00,
2013-01-08 17:40:00,46.4,31.6,30.38,ESE,109,2.0,4.0,56,0.00,,---,0.00,VWS V14.01,2013-01-08 22:40:00,
2013-01-08 17:45:00,46.5,31.7,30.39,ESE,109,3.0,4.0,56,0.00,,---,0.00,VWS V14.01,2013-01-08 22:45:00,
2013-01-08 17:50:00,46.6,31.8,30.39,ESE,114,2.0,4.0,56,0.00,,---,0.00,VWS V14.01,2013-01-08 22:50:00,
2013-01-08 17:55:00,46.2,31.8,30.40,ESE,114,0.0,4.0,57,0.00,,---,0.00,VWS V14.01,2013-01-08 22:55:00,
2013-01-08 18:00:00,45.6,31.3,30.41,ESE,114,0.0,4.0,57,0.00,,---,0.00,VWS V14.01,2013-01-08 23:00:00,
2013-01-08 18:05:00,44.9,31.0,30.40,SE,133,4.0,4.0,58,0.00,,---,0.00,VWS V14.01,2013-01-08 23:05:00,
2013-01-08 18:10:00,44.5,31.1,30.40,SSE,153,3.0,6.0,59,0.00,,---,0.00,VWS V14.01,2013-01-08 23:10:00,
2013-01-08 18:15:00,44.8,31.4,30.40,SE,146,3.0,6.0,59,0.00,,---,0.00,VWS V14.01,2013-01-08 23:15:00,
2013-01-08 18:20:00,44.8,31.4,30.40,SE,132,2.0,6.0,59,0.00,,---,0.00,VWS V14.01,2013-01-08 23:20:00,
2013-01-08 18:25:00,44.4,31.4,30.40,ESE,111,2.0,6.0,60,0.00,,---,0.00,VWS V14.01,2013-01-08 23:25:00,
2013-01-08 18:30:00,44.1,31.5,30.40,ESE,122,5.0,6.0,61,0.00,,---,0.00,VWS V14.01,2013-01-08 23:30:00,
2013-01-08 18:35:00,43.6,31.5,30.40,SE,128,0.0,6.0,62,0.00,,---,0.00,VWS V14.01,2013-01-08 23:35:00,
2013-01-08 18:40:00,43.0,30.9,30.41,SE,128,2.0,6.0,62,0.00,,---,0.00,VWS V14.01,2013-01-08 23:40:00,
2013-01-08 18:45:00,42.7,31.0,30.40,SE,128,2.0,6.0,63,0.00,,---,0.00,VWS V14.01,2013-01-08 23:45:00,
2013-01-08 18:50:00,42.5,31.2,30.41,ESE,102,3.0,6.0,64,0.00,,---,0.00,VWS V14.01,2013-01-08 23:50:00,
2013-01-08 18:55:00,42.1,30.8,30.41,East,101,0.0,6.0,64,0.00,,---,0.00,VWS V14.01,2013-01-08 23:55:00,
2013-01-08 19:00:00,41.5,30.6,30.41,SSE,149,2.0,6.0,65,0.00,,---,0.00,VWS V14.01,2013-01-09 00:00:00,
2013-01-08 19:05:00,40.9,30.4,30.40,SSE,149,0.0,3.0,66,0.00,,---,0.00,VWS V14.01,2013-01-09 00:05:00,
2013-01-08 19:10:00,40.5,30.4,30.40,SSE,149,1.0,3.0,67,0.00,,---,0.00,VWS V14.01,2013-01-09 00:10:00,
2013-01-08 19:15:00,40.0,30.3,30.40,SSE,149,2.0,3.0,68,0.00,,---,0.00,VWS V14.01,2013-01-09 00:15:00,
2013-01-08 19:20:00,39.6,29.9,30.40,SSE,150,1.0,3.0,68,0.00,,---,0.00,VWS V14.01,2013-01-09 00:20:00,
2013-01-08 19:25:00,39.2,29.9,30.41,SSE,150,0.0,3.0,69,0.00,,---,0.00,VWS V14.01,2013-01-09 00:25:00,
2013-01-08 19:30:00,39.0,30.1,30.41,SSE,150,0.0,3.0,70,0.00,,---,0.00,VWS V14.01,2013-01-09 00:30:00,
2013-01-08 19:35:00,38.9,30.0,30.41,SSE,149,1.0,2.0,70,0.00,,---,0.00,VWS V14.01,2013-01-09 00:35:00,
2013-01-08 19:40:00,38.4,29.5,30.41,SSE,149,3.0,3.0,70,0.00,,---,0.00,VWS V14.01,2013-01-09 00:40:00,
2013-01-08 19:45:00,37.6,29.1,30.41,SSE,150,2.0,3.0,71,0.00,,---,0.00,VWS V14.01,2013-01-09 00:45:00,
2013-01-08 19:50:00,36.9,28.7,30.41,SSE,150,1.0,3.0,72,0.00,,---,0.00,VWS V14.01,2013-01-09 00:50:00,
2013-01-08 19:55:00,36.3,28.5,30.41,SSE,149,0.0,3.0,73,0.00,,---,0.00,VWS V14.01,2013-01-09 00:55:00,
2013-01-08 20:00:00,35.9,28.4,30.40,SSE,149,0.0,3.0,74,0.00,,---,0.00,VWS V14.01,2013-01-09 01:00:00,
2013-01-08 20:05:00,35.6,28.5,30.40,SSE,150,0.0,1.0,75,0.00,,---,0.00,VWS V14.01,2013-01-09 01:05:00,
2013-01-08 20:10:00,35.5,28.7,30.40,SSE,150,0.0,2.0,76,0.00,,---,0.00,VWS V14.01,2013-01-09 01:10:00,
2013-01-08 20:15:00,35.6,28.8,30.40,SSE,150,0.0,2.0,76,0.00,,---,0.00,VWS V14.01,2013-01-09 01:15:00,
2013-01-08 20:20:00,35.5,28.7,30.41,SSE,149,0.0,2.0,76,0.00,,---,0.00,VWS V14.01,2013-01-09 01:20:00,
2013-01-08 20:24:00,35.4,28.6,30.40,SSE,150,0.0,2.0,76,0.00,,---,0.00,VWS V14.01,2013-01-09 01:24:00,
2013-01-08 20:29:00,35.2,28.7,30.41,SSE,150,0.0,2.0,77,0.00,,---,0.00,VWS V14.01,2013-01-09 01:29:00,
2013-01-08 20:35:00,34.9,28.4,30.41,SSE,150,0.0,0.0,77,0.00,,---,0.00,VWS V14.01,2013-01-09 01:35:00,
2013-01-08 20:40:00,34.5,28.0,30.42,SSE,149,0.0,1.0,77,0.00,,---,0.00,VWS V14.01,2013-01-09 01:40:00,
2013-01-08 20:44:00,34.4,28.0,30.42,SSE,150,0.0,1.0,77,0.00,,---,0.00,VWS V14.01,2013-01-09 01:44:00,
2013-01-08 20:49:00,34.2,28.1,30.42,SSE,149,0.0,1.0,78,0.00,,---,0.00,VWS V14.01,2013-01-09 01:49:00,
2013-01-08 20:54:00,33.8,27.7,30.42,SSE,150,0.0,1.0,78,0.00,,---,0.00,VWS V14.01,2013-01-09 01:54:00,
2013-01-08 20:59:00,33.4,27.6,30.42,SSE,150,0.0,1.0,79,0.00,,---,0.00,VWS V14.01,2013-01-09 01:59:00,
2013-01-08 21:04:00,33.2,27.4,30.41,SSE,149,0.0,0.0,79,0.00,,---,0.00,VWS V14.01,2013-01-09 02:04:00,
2013-01-08 21:09:00,32.8,27.3,30.41,SSE,150,0.0,1.0,80,0.00,,---,0.00,VWS V14.01,2013-01-09 02:09:00,
2013-01-08 21:14:00,32.6,27.4,30.42,SSE,149,0.0,1.0,81,0.00,,---,0.00,VWS V14.01,2013-01-09 02:14:00,
2013-01-08 21:19:00,32.7,27.8,30.41,SSE,150,0.0,1.0,82,0.00,,---,0.00,VWS V14.01,2013-01-09 02:19:00,
2013-01-08 21:24:00,33.0,28.1,30.41,SSE,150,0.0,1.0,82,0.00,,---,0.00,VWS V14.01,2013-01-09 02:24:00,
2013-01-08 21:29:00,33.4,28.5,30.41,SSE,149,0.0,1.0,82,0.00,,---,0.00,VWS V14.01,2013-01-09 02:29:00,
2013-01-08 21:34:00,33.7,28.5,30.41,SSE,149,0.0,2.0,81,0.00,,---,0.00,VWS V14.01,2013-01-09 02:34:00,
2013-01-08 21:39:00,34.3,28.8,30.41,SSE,149,0.0,2.0,80,0.00,,---,0.00,VWS V14.01,2013-01-09 02:39:00,
2013-01-08 21:44:00,34.4,28.9,30.41,SSE,150,0.0,2.0,80,0.00,,---,0.00,VWS V14.01,2013-01-09 02:44:00,
2013-01-08 21:49:00,34.4,28.6,30.41,SSE,150,0.0,2.0,79,0.00,,---,0.00,VWS V14.01,2013-01-09 02:49:00,
2013-01-08 21:54:00,34.4,28.3,30.41,SSE,149,0.0,2.0,78,0.00,,---,0.00,VWS V14.01,2013-01-09 02:54:00,
2013-01-08 21:59:00,33.6,27.5,30.41,SSE,150,0.0,2.0,78,0.00,,---,0.00,VWS V14.01,2013-01-09 02:59:00,
2013-01-08 22:04:00,33.1,27.0,30.41,SSE,150,0.0,0.0,78,0.00,,---,0.00,VWS V14.01,2013-01-09 03:04:00,
2013-01-08 22:09:00,32.7,26.9,30.41,SSE,150,0.0,0.0,79,0.00,,---,0.00,VWS V14.01,2013-01-09 03:09:00,
2013-01-08 22:14:00,32.3,26.5,30.41,SSE,149,0.0,1.0,79,0.00,,---,0.00,VWS V14.01,2013-01-09 03:14:00,
2013-01-08 22:19:00,31.8,26.0,30.41,SSE,149,0.0,1.0,79,0.00,,---,0.00,VWS V14.01,2013-01-09 03:19:00,
2013-01-08 22:24:00,31.2,25.8,30.41,SSE,150,0.0,1.0,80,0.00,,---,0.00,VWS V14.01,2013-01-09 03:24:00,
2013-01-08 22:29:00,30.7,25.3,30.42,SSE,150,0.0,1.0,80,0.00,,---,0.00,VWS V14.01,2013-01-09 03:29:00,
2013-01-08 22:34:00,30.3,25.2,30.42,SSE,150,0.0,0.0,81,0.00,,---,0.00,VWS V14.01,2013-01-09 03:34:00,
2013-01-08 22:39:00,30.1,25.3,30.42,SSE,150,0.0,1.0,82,0.00,,---,0.00,VWS V14.01,2013-01-09 03:39:00,
2013-01-08 22:44:00,29.9,25.1,30.42,SSE,149,0.0,1.0,82,0.00,,---,0.00,VWS V14.01,2013-01-09 03:44:00,
2013-01-08 22:49:00,29.8,25.3,30.41,SSE,150,1.0,1.0,83,0.00,,---,0.00,VWS V14.01,2013-01-09 03:49:00,
2013-01-08 22:54:00,29.8,25.6,30.41,SSE,150,0.0,1.0,84,0.00,,---,0.00,VWS V14.01,2013-01-09 03:54:00,
2013-01-08 22:59:00,29.9,25.7,30.41,SSE,150,1.0,2.0,84,0.00,,---,0.00,VWS V14.01,2013-01-09 03:59:00,
2013-01-08 23:04:00,30.1,26.1,30.40,SSE,150,1.0,1.0,85,0.00,,---,0.00,VWS V14.01,2013-01-09 04:04:00,
2013-01-08 23:09:00,30.4,26.7,30.40,SSE,149,0.0,2.0,86,0.00,,---,0.00,VWS V14.01,2013-01-09 04:09:00,
2013-01-08 23:14:00,30.9,27.2,30.39,SSE,149,0.0,2.0,86,0.00,,---,0.00,VWS V14.01,2013-01-09 04:14:00,
2013-01-08 23:19:00,31.0,27.3,30.39,SSE,150,0.0,2.0,86,0.00,,---,0.00,VWS V14.01,2013-01-09 04:19:00,
2013-01-08 23:24:00,30.8,26.8,30.40,SSE,150,0.0,2.0,85,0.00,,---,0.00,VWS V14.01,2013-01-09 04:24:00,
2013-01-08 23:29:00,30.5,26.5,30.40,SSE,150,0.0,2.0,85,0.00,,---,0.00,VWS V14.01,2013-01-09 04:29:00,
2013-01-08 23:34:00,30.2,26.2,30.40,SSE,150,1.0,1.0,85,0.00,,---,0.00,VWS V14.01,2013-01-09 04:34:00,
2013-01-08 23:39:00,29.8,25.9,30.40,SSE,149,0.0,1.0,85,0.00,,---,0.00,VWS V14.01,2013-01-09 04:39:00,
2013-01-08 23:44:00,29.6,25.6,30.41,SSE,149,0.0,1.0,85,0.00,,---,0.00,VWS V14.01,2013-01-09 04:44:00,
2013-01-08 23:49:00,29.4,25.5,30.41,SSE,149,0.0,1.0,85,0.00,,---,0.00,VWS V14.01,2013-01-09 04:49:00,
2013-01-08 23:54:00,29.4,25.7,30.41,SSE,150,1.0,1.0,86,0.00,,---,0.00,VWS V14.01,2013-01-09 04:54:00,
2013-01-08 23:59:00,29.4,25.7,30.41,SSE,150,0.0,1.0,86,0.00,,---,0.00,VWS V14.01,2013-01-09 04:59:00,